Other Surface Observations
Issued by NWS Missoula, MT

Home | Current Version | Previous Version | Text Only | Print | Product List | Glossary On
Versions: 1 2 3 4 5 6 7 8 9 10 11 12 13 14 15 16 17 18 19 20 21 22 23 24 25 26 27 28 29 30 31 32 33 34 35 36 37 38 39 40 41 42 43 44 45 46 47 48 49 50
000
SXUS55 KMSO 230303
OSOMSO
MONTANA AWOS SUMMARY
NATIONAL WEATHER SERVICE MISSOULA MT
803 PM MST MON DEC 22 2014

Montana AWOS Reports

LAUREL      |K6S8 230255Z AUTO 28011G15KT 40SM 01/M09 A3001 RMK AO1 T00111093
ROUNDUP     |KRPX 230255Z AUTO 26011KT 40SM 02/M07 A2993 RMK AO1 T00171066
SCOBEY      |K9S2 230255Z AUTO 28017G24KT 5SM M06/M10 A2990 RMK AO1 T10601099
MALTA       |KM75 230255Z AUTO 29008KT 40SM 01/M03 A2998 RMK AO1 T00111032




USA.gov is the U.S. government's official web portal to all federal, state and local government web resources and services.